sensor_id;sensor_type;location;lat;lon;timestamp;temperature;humidity
81366;DHT22;70822;51.990;22.766;2024-01-27T00:10:43;0.50;82.10
81366;DHT22;70822;51.990;22.766;2024-01-27T00:25:50;0.70;82.20
81366;DHT22;70822;51.990;22.766;2024-01-27T00:40:55;0.90;82.20
81366;DHT22;70822;51.990;22.766;2024-01-27T00:56:00;0.90;82.50
81366;DHT22;70822;51.990;22.766;2024-01-27T01:11:06;0.90;82.80
81366;DHT22;70822;51.990;22.766;2024-01-27T01:26:11;0.90;82.90
81366;DHT22;70822;51.990;22.766;2024-01-27T01:41:16;1.00;83.10
81366;DHT22;70822;51.990;22.766;2024-01-27T01:56:21;1.00;83.40
81366;DHT22;70822;51.990;22.766;2024-01-27T02:11:26;1.00;83.80
81366;DHT22;70822;51.990;22.766;2024-01-27T02:26:30;1.30;83.70
81366;DHT22;70822;51.990;22.766;2024-01-27T02:41:35;1.10;83.90
81366;DHT22;70822;51.990;22.766;2024-01-27T02:56:44;1.10;85.60
81366;DHT22;70822;51.990;22.766;2024-01-27T03:11:49;1.40;86.60
81366;DHT22;70822;51.990;22.766;2024-01-27T03:27:00;1.60;87.50
81366;DHT22;70822;51.990;22.766;2024-01-27T03:42:05;1.90;88.10
81366;DHT22;70822;51.990;22.766;2024-01-27T03:57:10;2.00;88.60
81366;DHT22;70822;51.990;22.766;2024-01-27T04:12:15;2.00;88.50
81366;DHT22;70822;51.990;22.766;2024-01-27T04:27:19;2.20;88.40
81366;DHT22;70822;51.990;22.766;2024-01-27T04:42:25;2.50;88.10
81366;DHT22;70822;51.990;22.766;2024-01-27T04:57:30;2.30;87.90
81366;DHT22;70822;51.990;22.766;2024-01-27T05:12:36;2.40;87.80
81366;DHT22;70822;51.990;22.766;2024-01-27T05:27:40;2.60;87.60
81366;DHT22;70822;51.990;22.766;2024-01-27T05:42:45;2.80;87.00
81366;DHT22;70822;51.990;22.766;2024-01-27T05:57:50;2.50;86.80
81366;DHT22;70822;51.990;22.766;2024-01-27T06:12:54;2.90;86.50
81366;DHT22;70822;51.990;22.766;2024-01-27T06:27:59;2.70;86.40
81366;DHT22;70822;51.990;22.766;2024-01-27T06:43:04;2.70;86.20
81366;DHT22;70822;51.990;22.766;2024-01-27T06:58:09;2.80;86.20
81366;DHT22;70822;51.990;22.766;2024-01-27T07:13:14;2.70;86.20
81366;DHT22;70822;51.990;22.766;2024-01-27T07:28:19;2.80;86.30
81366;DHT22;70822;51.990;22.766;2024-01-27T07:43:25;2.90;86.20
81366;DHT22;70822;51.990;22.766;2024-01-27T07:58:31;3.20;86.10
81366;DHT22;70822;51.990;22.766;2024-01-27T08:13:36;3.30;85.70
81366;DHT22;70822;51.990;22.766;2024-01-27T08:28:41;3.30;85.70
81366;DHT22;70822;51.990;22.766;2024-01-27T08:43:50;3.30;84.90
81366;DHT22;70822;51.990;22.766;2024-01-27T08:58:57;3.40;85.00
81366;DHT22;70822;51.990;22.766;2024-01-27T09:14:02;3.70;84.60
81366;DHT22;70822;51.990;22.766;2024-01-27T09:29:09;3.70;84.20
81366;DHT22;70822;51.990;22.766;2024-01-27T09:44:18;3.50;84.50
81366;DHT22;70822;51.990;22.766;2024-01-27T09:59:25;3.60;85.00
81366;DHT22;70822;51.990;22.766;2024-01-27T10:14:39;4.00;85.10
81366;DHT22;70822;51.990;22.766;2024-01-27T10:29:53;4.20;84.90
81366;DHT22;70822;51.990;22.766;2024-01-27T10:44:59;4.00;85.00
81366;DHT22;70822;51.990;22.766;2024-01-27T11:00:09;4.10;85.20
81366;DHT22;70822;51.990;22.766;2024-01-27T11:15:16;4.90;84.50
81366;DHT22;70822;51.990;22.766;2024-01-27T11:30:28;4.50;84.10
81366;DHT22;70822;51.990;22.766;2024-01-27T11:45:33;4.40;84.30
81366;DHT22;70822;51.990;22.766;2024-01-27T12:00:39;4.90;84.30
81366;DHT22;70822;51.990;22.766;2024-01-27T12:15:44;4.50;83.30
81366;DHT22;70822;51.990;22.766;2024-01-27T12:30:49;4.50;83.50
81366;DHT22;70822;51.990;22.766;2024-01-27T12:45:56;4.60;83.60
81366;DHT22;70822;51.990;22.766;2024-01-27T13:01:00;4.40;83.60
81366;DHT22;70822;51.990;22.766;2024-01-27T13:16:06;4.20;84.00
81366;DHT22;70822;51.990;22.766;2024-01-27T13:31:11;4.50;83.90
81366;DHT22;70822;51.990;22.766;2024-01-27T13:46:17;4.40;83.40
81366;DHT22;70822;51.990;22.766;2024-01-27T14:01:22;4.60;83.30
81366;DHT22;70822;51.990;22.766;2024-01-27T14:16:27;4.50;83.30
81366;DHT22;70822;51.990;22.766;2024-01-27T14:31:34;4.00;83.60
81366;DHT22;70822;51.990;22.766;2024-01-27T14:46:39;4.20;83.40
81366;DHT22;70822;51.990;22.766;2024-01-27T15:01:44;3.70;83.20
81366;DHT22;70822;51.990;22.766;2024-01-27T15:16:51;3.50;83.30
81366;DHT22;70822;51.990;22.766;2024-01-27T15:31:57;3.60;83.10
81366;DHT22;70822;51.990;22.766;2024-01-27T15:47:02;3.60;83.40
81366;DHT22;70822;51.990;22.766;2024-01-27T16:02:07;3.30;83.30
81366;DHT22;70822;51.990;22.766;2024-01-27T16:17:12;3.20;83.50
81366;DHT22;70822;51.990;22.766;2024-01-27T16:32:17;3.10;83.60
81366;DHT22;70822;51.990;22.766;2024-01-27T16:47:23;3.00;83.80
81366;DHT22;70822;51.990;22.766;2024-01-27T17:02:27;2.90;84.00
81366;DHT22;70822;51.990;22.766;2024-01-27T17:17:33;3.10;84.00
81366;DHT22;70822;51.990;22.766;2024-01-27T17:32:38;3.20;83.90
81366;DHT22;70822;51.990;22.766;2024-01-27T17:47:47;3.30;84.50
81366;DHT22;70822;51.990;22.766;2024-01-27T18:02:59;3.20;85.00
81366;DHT22;70822;51.990;22.766;2024-01-27T18:18:04;3.10;84.90
81366;DHT22;70822;51.990;22.766;2024-01-27T18:33:09;3.00;86.10
81366;DHT22;70822;51.990;22.766;2024-01-27T18:48:14;3.10;86.80
81366;DHT22;70822;51.990;22.766;2024-01-27T19:03:19;2.80;87.10
81366;DHT22;70822;51.990;22.766;2024-01-27T19:18:24;2.30;87.50
81366;DHT22;70822;51.990;22.766;2024-01-27T19:33:29;2.60;87.40
81366;DHT22;70822;51.990;22.766;2024-01-27T19:48:34;2.70;87.40
81366;DHT22;70822;51.990;22.766;2024-01-27T20:03:39;2.40;87.20
81366;DHT22;70822;51.990;22.766;2024-01-27T20:18:44;2.40;87.10
81366;DHT22;70822;51.990;22.766;2024-01-27T20:33:49;2.20;87.20
81366;DHT22;70822;51.990;22.766;2024-01-27T20:48:55;2.10;87.40
81366;DHT22;70822;51.990;22.766;2024-01-27T21:04:00;2.10;87.40
81366;DHT22;70822;51.990;22.766;2024-01-27T21:19:05;2.00;87.40
81366;DHT22;70822;51.990;22.766;2024-01-27T21:34:10;2.30;87.60
81366;DHT22;70822;51.990;22.766;2024-01-27T21:49:15;2.10;87.50
81366;DHT22;70822;51.990;22.766;2024-01-27T22:04:20;2.00;87.60
81366;DHT22;70822;51.990;22.766;2024-01-27T22:19:25;2.00;87.40
81366;DHT22;70822;51.990;22.766;2024-01-27T22:34:30;2.00;87.90
81366;DHT22;70822;51.990;22.766;2024-01-27T22:49:35;2.10;88.10
81366;DHT22;70822;51.990;22.766;2024-01-27T23:04:40;2.20;88.20
81366;DHT22;70822;51.990;22.766;2024-01-27T23:19:46;2.10;88.30
81366;DHT22;70822;51.990;22.766;2024-01-27T23:34:51;2.10;88.30
81366;DHT22;70822;51.990;22.766;2024-01-27T23:49:56;2.20;88.70
